createdAt,value
2018-03-15T00:02:28.805Z,19.02
2018-03-15T00:04:57.941Z,20.55
2018-03-15T00:07:25.682Z,18.33
2018-03-15T00:09:58.308Z,23.30
2018-03-15T00:12:26.082Z,24.00
2018-03-15T00:14:56.441Z,21.00
2018-03-15T00:17:24.247Z,23.20
2018-03-15T00:19:52.001Z,28.92
2018-03-15T00:22:23.654Z,21.33
2018-03-15T00:24:51.458Z,27.52
2018-03-15T00:29:59.036Z,25.65
2018-03-15T00:32:27.789Z,30.80
2018-03-15T00:34:55.590Z,28.23
2018-03-15T00:37:24.163Z,30.23
2018-03-15T00:39:54.766Z,28.15
2018-03-15T00:42:23.174Z,35.20
2018-03-15T00:44:51.747Z,28.35
2018-03-15T00:47:21.309Z,31.90
2018-03-15T00:49:49.105Z,32.90
2018-03-15T00:52:18.587Z,26.23
2018-03-15T00:54:46.411Z,26.02
2018-03-15T00:57:16.575Z,32.30
2018-03-15T00:59:45.689Z,28.35
2018-03-15T01:02:14.745Z,28.58
2018-03-15T01:04:42.515Z,28.90
2018-03-15T01:07:10.319Z,36.70
2018-03-15T01:09:39.038Z,28.23
2018-03-15T01:12:06.802Z,25.08
2018-03-15T01:14:35.726Z,30.67
2018-03-15T01:17:03.491Z,29.55
2018-03-15T01:19:34.006Z,23.87
2018-03-15T01:22:01.910Z,29.83
2018-03-15T01:24:37.869Z,29.50
2018-03-15T01:27:06.438Z,28.48
2018-03-15T01:29:36.501Z,28.15
2018-03-15T01:32:04.264Z,26.08
2018-03-15T01:34:34.793Z,30.37
2018-03-15T01:37:02.551Z,28.58
2018-03-15T01:39:33.221Z,28.27
2018-03-15T01:42:01.093Z,28.40
2018-03-15T01:44:31.659Z,27.10
2018-03-15T01:46:59.495Z,28.23
2018-03-15T01:49:32.516Z,23.58
2018-03-15T01:52:00.282Z,29.50
2018-03-15T01:54:28.177Z,28.10
2018-03-15T01:56:56.064Z,23.25
2018-03-15T01:59:24.596Z,26.42
2018-03-15T02:01:54.794Z,27.35
2018-03-15T02:04:24.531Z,27.25
2018-03-15T02:06:52.300Z,22.90
2018-03-15T02:09:20.675Z,21.62
2018-03-15T02:11:48.488Z,26.35
2018-03-15T02:14:16.270Z,24.92
2018-03-15T02:16:44.042Z,20.65
2018-03-15T02:19:11.875Z,24.02
2018-03-15T02:21:39.634Z,20.75
2018-03-15T02:24:08.146Z,23.77
2018-03-15T02:26:37.542Z,21.60
2018-03-15T02:29:05.320Z,22.30
2018-03-15T02:31:36.925Z,25.60
2018-03-15T02:34:04.783Z,28.98
2018-03-15T02:36:34.342Z,25.27
2018-03-15T02:39:02.911Z,26.20
2018-03-15T02:41:30.721Z,26.05
2018-03-15T02:43:59.871Z,28.83
2018-03-15T02:46:27.663Z,29.92
2018-03-15T02:48:56.271Z,31.95
2018-03-15T02:51:25.356Z,32.08
2018-03-15T02:53:53.185Z,30.08
2018-03-15T02:56:25.316Z,31.23
2018-03-15T02:58:53.901Z,29.73
2018-03-15T03:01:25.318Z,32.15
2018-03-15T03:03:53.846Z,28.58
2018-03-15T03:06:22.035Z,33.10
2018-03-15T03:08:49.997Z,33.95
2018-03-15T03:11:17.750Z,34.78
2018-03-15T03:13:45.532Z,32.35
2018-03-15T03:16:13.337Z,31.65
2018-03-15T03:18:41.098Z,33.75
2018-03-15T03:21:09.648Z,33.53
2018-03-15T03:23:38.315Z,34.50
2018-03-15T03:26:06.274Z,32.88
2018-03-15T03:28:34.262Z,35.85
2018-03-15T03:31:02.832Z,34.05
2018-03-15T03:33:30.598Z,31.83
2018-03-15T03:35:59.751Z,30.73
2018-03-15T03:38:27.592Z,32.00
2018-03-15T03:40:55.339Z,32.00
2018-03-15T03:43:23.908Z,29.30
2018-03-15T03:45:52.496Z,31.52
2018-03-15T03:48:21.011Z,28.85
2018-03-15T03:50:48.766Z,31.25
2018-03-15T03:53:16.569Z,35.08
2018-03-15T03:55:44.346Z,31.80
2018-03-15T03:58:12.099Z,33.05
2018-03-15T04:00:42.344Z,30.90
2018-03-15T04:03:10.870Z,33.72
2018-03-15T04:05:38.626Z,33.38
2018-03-15T04:08:06.421Z,31.02
2018-03-15T04:10:34.175Z,31.73
2018-03-15T04:13:02.287Z,29.60
2018-03-15T04:15:30.154Z,30.92
2018-03-15T04:17:57.939Z,29.40
2018-03-15T04:20:26.156Z,33.72
2018-03-15T04:22:54.005Z,33.72
2018-03-15T04:25:22.029Z,30.42
2018-03-15T04:27:49.811Z,32.13
2018-03-15T04:30:17.613Z,35.22
2018-03-15T04:32:46.138Z,33.95
2018-03-15T04:35:13.887Z,31.27
2018-03-15T04:37:41.698Z,34.42
2018-03-15T04:40:09.505Z,30.73
2018-03-15T04:42:38.454Z,28.95
2018-03-15T04:45:06.338Z,25.48
2018-03-15T04:47:34.454Z,25.77
2018-03-15T04:50:02.213Z,29.52
2018-03-15T04:52:30.017Z,31.62
2018-03-15T04:54:57.774Z,28.67
2018-03-15T04:57:25.535Z,23.00
2018-03-15T04:59:53.333Z,27.58
2018-03-15T05:02:21.849Z,23.90
2018-03-15T05:04:50.089Z,30.37
2018-03-15T05:07:18.696Z,27.92
2018-03-15T05:09:46.438Z,25.50
2018-03-15T05:12:15.550Z,29.00
2018-03-15T05:14:43.349Z,31.85
2018-03-15T05:17:11.767Z,32.13
2018-03-15T05:19:40.598Z,27.08
2018-03-15T05:22:08.403Z,31.08
2018-03-15T05:24:37.106Z,32.55
2018-03-15T05:27:05.087Z,32.25
2018-03-15T05:29:32.905Z,37.80
2018-03-15T05:32:00.670Z,26.42
2018-03-15T05:34:28.427Z,36.22
2018-03-15T05:36:56.225Z,40.72
2018-03-15T05:39:24.022Z,37.78
2018-03-15T05:41:51.773Z,43.08
2018-03-15T05:44:19.607Z,38.13
2018-03-15T05:46:47.397Z,32.67
2018-03-15T05:49:15.975Z,39.33
2018-03-15T05:51:45.906Z,38.22
2018-03-15T05:54:15.401Z,38.97
2018-03-15T05:56:43.146Z,43.67
2018-03-15T05:59:11.794Z,47.80
2018-03-15T06:01:40.355Z,44.33
2018-03-15T06:04:08.360Z,52.35
2018-03-15T06:06:36.276Z,45.08
2018-03-15T06:09:04.085Z,42.35
2018-03-15T06:11:32.595Z,41.88
2018-03-15T06:14:00.524Z,56.83
2018-03-15T06:16:28.277Z,49.25
2018-03-15T06:18:56.809Z,48.97
2018-03-15T06:21:24.766Z,53.72
2018-03-15T06:23:52.535Z,49.63
2018-03-15T06:26:20.286Z,51.53
2018-03-15T06:28:48.194Z,51.28
2018-03-15T06:31:15.947Z,49.92
2018-03-15T06:33:43.690Z,55.95
2018-03-15T06:36:11.505Z,56.75
2018-03-15T06:38:40.044Z,52.10
2018-03-15T06:41:07.799Z,50.35
2018-03-15T06:43:41.426Z,41.63
2018-03-15T06:46:09.659Z,47.75
2018-03-15T06:48:37.514Z,45.28
2018-03-15T06:51:05.366Z,42.03
2018-03-15T06:53:33.139Z,47.03
2018-03-15T06:56:00.890Z,40.70
2018-03-15T06:58:28.690Z,39.17
2018-03-15T07:00:56.448Z,41.92
2018-03-15T07:03:24.223Z,43.15
2018-03-15T07:05:52.031Z,39.80
2018-03-15T07:08:19.778Z,37.15
2018-03-15T07:10:48.302Z,44.63
2018-03-15T07:13:16.118Z,46.55
2018-03-15T07:15:44.632Z,45.33
2018-03-15T07:18:12.381Z,44.63
2018-03-15T07:20:40.183Z,44.30
2018-03-15T07:23:08.314Z,43.67
2018-03-15T07:25:36.067Z,41.95
2018-03-15T07:28:03.879Z,50.03
2018-03-15T07:30:32.396Z,50.65
2018-03-15T07:33:00.922Z,52.15
2018-03-15T07:35:28.728Z,46.97
2018-03-15T07:37:56.518Z,54.10
2018-03-15T07:40:24.265Z,57.22
2018-03-15T07:42:52.111Z,49.60
2018-03-15T07:45:19.863Z,55.60
2018-03-15T07:47:47.661Z,65.25
2018-03-15T07:50:15.462Z,44.08
2018-03-15T07:52:43.214Z,48.17
2018-03-15T07:55:10.963Z,56.35
2018-03-15T07:57:38.776Z,62.95
2018-03-15T08:00:06.534Z,55.53
2018-03-15T08:02:34.285Z,59.35
2018-03-15T08:05:05.547Z,54.80
2018-03-15T08:07:33.846Z,45.12
2018-03-15T08:10:05.238Z,51.55
2018-03-15T08:12:33.971Z,49.78
2018-03-15T08:15:09.475Z,50.78
2018-03-15T08:17:37.250Z,55.65
2018-03-15T08:20:10.093Z,54.35
2018-03-15T08:22:39.894Z,53.78
2018-03-15T08:25:07.639Z,47.83
2018-03-15T08:27:36.205Z,49.75
2018-03-15T08:30:04.738Z,50.80
2018-03-15T08:32:35.389Z,55.20
2018-03-15T08:35:13.126Z,49.30
2018-03-15T08:37:42.494Z,56.63
2018-03-15T08:40:11.810Z,52.50
2018-03-15T08:42:42.899Z,50.95
2018-03-15T08:45:26.478Z,56.22
2018-03-15T08:48:04.979Z,45.03
2018-03-15T08:50:32.725Z,52.30
2018-03-15T08:53:07.129Z,56.88
2018-03-15T08:55:34.932Z,44.60
2018-03-15T08:58:03.471Z,52.42
2018-03-15T09:00:31.239Z,56.88
2018-03-15T09:02:59.071Z,50.58
2018-03-15T09:05:29.769Z,60.65
2018-03-15T09:08:15.040Z,52.95
2018-03-15T09:10:48.160Z,67.93
2018-03-15T09:13:20.975Z,61.13
2018-03-15T09:15:48.727Z,52.95
2018-03-15T09:18:16.487Z,69.40
2018-03-15T09:20:44.289Z,58.45
2018-03-15T09:23:15.826Z,61.37
2018-03-15T09:25:50.543Z,65.43
2018-03-15T09:28:19.831Z,54.25
2018-03-15T09:30:48.338Z,53.30
2018-03-15T09:33:19.847Z,56.92
2018-03-15T09:35:48.346Z,52.72
2018-03-15T09:51:46.250Z,54.53
2018-03-15T09:54:14.037Z,42.55
2018-03-15T09:56:44.842Z,42.62
2018-03-15T09:59:14.536Z,47.30
2018-03-15T10:01:42.305Z,47.22
2018-03-15T10:04:10.682Z,43.30
2018-03-15T10:06:53.388Z,41.42
2018-03-15T10:09:21.170Z,48.50
2018-03-15T10:11:49.846Z,45.65
2018-03-15T10:14:18.720Z,42.28
2018-03-15T10:16:47.071Z,41.42
2018-03-15T10:19:14.877Z,45.58
2018-03-15T10:21:43.337Z,41.78
2018-03-15T10:24:25.985Z,42.22
2018-03-15T10:26:53.828Z,40.80
2018-03-15T10:29:21.627Z,48.67
2018-03-15T10:31:49.422Z,41.22
2018-03-15T10:34:17.274Z,45.38
2018-03-15T10:36:52.886Z,45.88
2018-03-15T10:39:24.470Z,46.33
2018-03-15T10:41:53.100Z,43.92
2018-03-15T10:44:20.907Z,51.75
2018-03-15T10:46:49.495Z,50.15
2018-03-15T10:49:17.282Z,49.28
2018-03-15T10:51:45.066Z,43.67
2018-03-15T10:54:12.919Z,37.25
2018-03-15T10:56:40.698Z,44.60
2018-03-15T10:59:08.459Z,49.50
2018-03-15T11:01:42.689Z,43.60
2018-03-15T11:04:11.262Z,52.47
2018-03-15T11:06:41.859Z,52.38
2018-03-15T11:09:14.314Z,50.85
2018-03-15T11:11:42.109Z,44.42
2018-03-15T11:14:09.926Z,44.40
2018-03-15T11:16:38.515Z,44.35
2018-03-15T11:19:06.293Z,43.40
2018-03-15T11:21:34.077Z,42.45
2018-03-15T11:24:01.962Z,52.08
2018-03-15T11:26:29.700Z,52.38
2018-03-15T11:28:57.476Z,43.17
2018-03-15T11:31:26.106Z,40.42
2018-03-15T11:33:53.891Z,42.50
2018-03-15T11:36:21.674Z,47.85
2018-03-15T11:38:49.508Z,53.63
2018-03-15T11:41:17.258Z,47.50
2018-03-15T11:43:45.075Z,57.80
2018-03-15T11:46:12.896Z,50.78
2018-03-15T11:48:40.707Z,48.42
2018-03-15T11:51:08.486Z,42.70
2018-03-15T11:53:36.306Z,42.08
2018-03-15T11:56:04.073Z,48.92
2018-03-15T11:58:31.847Z,44.63
2018-03-15T12:00:59.671Z,53.87
2018-03-15T12:03:27.474Z,46.97
2018-03-15T12:05:56.042Z,44.95
2018-03-15T12:08:23.899Z,43.33
2018-03-15T12:10:51.679Z,43.35
2018-03-15T12:13:20.204Z,43.47
2018-03-15T12:15:48.797Z,48.90
2018-03-15T12:18:16.562Z,43.55
2018-03-15T12:20:45.083Z,39.17
2018-03-15T12:23:12.944Z,41.63
2018-03-15T12:25:40.698Z,47.00
2018-03-15T12:28:08.537Z,43.67
2018-03-15T12:30:36.363Z,49.38
2018-03-15T12:33:04.165Z,48.10
2018-03-15T12:35:32.034Z,35.75
2018-03-15T12:37:59.845Z,35.13
2018-03-15T12:40:27.585Z,38.70
2018-03-15T12:42:55.372Z,47.67
2018-03-15T12:45:23.184Z,52.78
2018-03-15T12:47:50.934Z,41.83
2018-03-15T12:50:19.467Z,48.03
2018-03-15T12:52:48.042Z,52.40
2018-03-15T12:55:16.559Z,50.05
2018-03-15T12:57:45.373Z,49.45
2018-03-15T13:00:13.170Z,60.65
2018-03-15T13:02:40.923Z,54.33
2018-03-15T13:05:08.667Z,61.20
2018-03-15T13:07:36.474Z,54.13
2018-03-15T13:10:04.255Z,52.13
2018-03-15T13:12:32.764Z,52.25
2018-03-15T13:15:00.569Z,46.72
2018-03-15T13:17:28.401Z,47.35
2018-03-15T13:19:56.150Z,47.25
2018-03-15T13:22:23.991Z,46.58
2018-03-15T13:24:52.519Z,47.88
2018-03-15T13:27:20.278Z,41.88
2018-03-15T13:29:48.088Z,44.25
2018-03-15T13:32:16.622Z,47.22
2018-03-15T13:34:44.374Z,48.05
2018-03-15T13:37:12.178Z,38.55
2018-03-15T13:39:39.934Z,43.47
2018-03-15T13:42:07.686Z,44.25
2018-03-15T13:44:36.282Z,40.33
2018-03-15T13:47:04.035Z,40.22
2018-03-15T13:49:31.815Z,38.92
2018-03-15T13:51:59.662Z,47.10
2018-03-15T13:54:27.413Z,33.15
2018-03-15T13:56:55.169Z,34.15
2018-03-15T13:59:22.978Z,51.25
2018-03-15T14:01:51.501Z,36.83
2018-03-15T14:04:19.247Z,42.78
2018-03-15T14:06:47.047Z,34.45
2018-03-15T14:09:14.803Z,33.63
2018-03-15T14:11:42.562Z,45.70
2018-03-15T14:14:10.366Z,40.88
2018-03-15T14:16:38.885Z,42.85
2018-03-15T14:19:06.638Z,42.83
2018-03-15T14:21:34.434Z,51.00
2018-03-15T14:24:02.183Z,40.70
2018-03-15T14:26:29.931Z,38.00
2018-03-15T14:28:57.725Z,38.67
2018-03-15T14:31:25.473Z,40.67
2018-03-15T14:33:53.242Z,44.97
2018-03-15T14:36:21.046Z,51.88
2018-03-15T14:38:49.563Z,44.85
2018-03-15T14:41:17.308Z,40.83
2018-03-15T14:43:45.113Z,44.38
2018-03-15T14:46:12.892Z,38.72
2018-03-15T14:48:40.640Z,35.78
2018-03-15T14:51:08.446Z,43.38
2018-03-15T14:53:36.190Z,34.95
2018-03-15T14:56:04.710Z,32.17
2018-03-15T14:58:32.549Z,30.90
2018-03-15T15:01:00.308Z,36.40
2018-03-15T15:03:28.822Z,35.92
2018-03-15T15:05:56.623Z,34.50
2018-03-15T15:08:24.396Z,29.45
2018-03-15T15:10:52.910Z,35.50
2018-03-15T15:13:20.711Z,29.40
2018-03-15T15:15:48.452Z,33.40
2018-03-15T15:18:16.216Z,31.48
2018-03-15T15:20:44.931Z,37.53
2018-03-15T15:23:12.686Z,36.10
2018-03-15T15:25:40.432Z,34.22
2018-03-15T15:28:08.307Z,42.13
2018-03-15T15:30:36.061Z,43.30
2018-03-15T15:33:03.813Z,47.80
2018-03-15T15:35:31.618Z,43.45
2018-03-15T15:38:00.135Z,49.58
2018-03-15T15:40:27.886Z,42.15
2018-03-15T15:42:55.690Z,44.83
2018-03-15T15:45:23.441Z,51.45
2018-03-15T15:47:51.185Z,49.15
2018-03-15T15:50:18.992Z,49.47
2018-03-15T15:52:46.793Z,53.08
2018-03-15T15:55:14.557Z,48.50
2018-03-15T15:57:42.509Z,35.53
2018-03-15T16:00:11.959Z,40.67
2018-03-15T16:02:39.751Z,48.55
2018-03-15T16:05:07.574Z,40.08
2018-03-15T16:07:35.324Z,39.50
2018-03-15T16:10:03.085Z,38.50
2018-03-15T16:12:30.899Z,47.17
2018-03-15T16:14:58.649Z,48.53
2018-03-15T16:17:26.415Z,36.53
2018-03-15T16:19:57.706Z,44.67
2018-03-15T16:22:25.458Z,51.15
2018-03-15T16:24:53.982Z,52.05
2018-03-15T16:27:21.789Z,55.38
2018-03-15T16:29:50.302Z,44.78
2018-03-15T16:32:18.053Z,49.45
2018-03-15T16:34:45.854Z,45.97
2018-03-15T16:37:13.599Z,49.45
2018-03-15T16:39:41.363Z,46.85
2018-03-15T16:42:09.172Z,42.42
2018-03-15T16:44:37.705Z,48.65
2018-03-15T16:47:05.462Z,49.28
2018-03-15T16:49:33.262Z,51.13
2018-03-15T16:52:01.030Z,46.30
2018-03-15T16:54:28.783Z,45.45
2018-03-15T16:56:56.602Z,43.13
2018-03-15T16:59:24.388Z,47.65
2018-03-15T17:01:52.981Z,52.72
2018-03-15T17:04:20.845Z,59.28
2018-03-15T17:06:48.658Z,59.65
2018-03-15T17:09:16.429Z,56.22
2018-03-15T17:11:44.878Z,62.60
2018-03-15T17:14:13.414Z,67.28
2018-03-15T17:16:41.174Z,66.35
2018-03-15T17:19:09.046Z,65.47
2018-03-15T17:21:36.834Z,53.55
2018-03-15T17:24:04.646Z,57.25
2018-03-15T17:26:32.479Z,57.92
2018-03-15T17:29:00.282Z,58.25
2018-03-15T17:31:28.103Z,61.60
2018-03-15T17:33:55.938Z,60.15
2018-03-15T17:36:23.719Z,62.35
2018-03-15T17:38:52.275Z,49.80
2018-03-15T17:41:20.111Z,63.45
2018-03-15T17:43:47.890Z,54.50
2018-03-15T17:46:15.643Z,72.60
2018-03-15T17:48:43.446Z,50.53
2018-03-15T17:51:11.985Z,61.08
2018-03-15T17:53:39.735Z,51.78
2018-03-15T17:56:07.641Z,61.05
2018-03-15T17:58:35.408Z,60.38
2018-03-15T18:01:03.206Z,53.35
2018-03-15T18:03:31.019Z,54.25
2018-03-15T18:05:58.792Z,52.22
2018-03-15T18:08:26.566Z,59.47
2018-03-15T18:10:55.151Z,44.58
2018-03-15T18:13:23.705Z,53.15
2018-03-15T18:15:51.542Z,62.03
2018-03-15T18:18:19.343Z,56.25
2018-03-15T18:20:47.105Z,58.83
2018-03-15T18:23:15.633Z,53.25
2018-03-15T18:25:43.436Z,52.35
2018-03-15T18:28:11.211Z,52.22
2018-03-15T18:30:39.025Z,44.80
2018-03-15T18:33:06.862Z,43.90
2018-03-15T18:35:35.379Z,47.88
2018-03-15T18:38:03.145Z,54.55
2018-03-15T18:40:30.944Z,46.42
2018-03-15T18:42:58.699Z,52.88
2018-03-15T18:45:27.249Z,56.28
2018-03-15T18:47:55.094Z,50.38
2018-03-15T18:50:22.856Z,57.55
2018-03-15T18:52:50.629Z,52.35
2018-03-15T18:55:18.434Z,54.28
2018-03-15T18:57:46.226Z,56.35
2018-03-15T19:00:13.984Z,48.90
2018-03-15T19:02:41.792Z,54.47
2018-03-15T19:05:10.258Z,54.10
2018-03-15T19:07:38.015Z,63.67
2018-03-15T19:10:05.823Z,45.60
2018-03-15T19:12:33.593Z,51.28
2018-03-15T19:15:02.110Z,49.17
2018-03-15T19:17:29.923Z,54.70
2018-03-15T19:19:57.671Z,49.63
2018-03-15T19:22:25.425Z,51.50
2018-03-15T19:24:53.244Z,46.35
2018-03-15T19:27:20.990Z,53.67
2018-03-15T19:29:49.497Z,47.45
2018-03-15T19:32:17.302Z,54.00
2018-03-15T19:34:45.057Z,54.13
2018-03-15T19:37:12.797Z,53.95
2018-03-15T19:39:40.614Z,52.22
2018-03-15T19:42:09.132Z,52.65
2018-03-15T19:44:36.885Z,49.25
2018-03-15T19:47:04.706Z,60.97
2018-03-15T19:49:32.462Z,50.22
2018-03-15T19:52:00.218Z,47.83
2018-03-15T19:54:28.018Z,45.63
2018-03-15T19:56:55.771Z,47.20
2018-03-15T19:59:24.293Z,56.08
2018-03-15T20:01:52.111Z,54.25
2018-03-15T20:04:20.626Z,54.55
2018-03-15T20:06:48.367Z,49.55
2018-03-15T20:09:16.189Z,53.70
2018-03-15T20:11:43.988Z,48.78
2018-03-15T20:14:12.513Z,47.47
2018-03-15T20:16:40.325Z,55.53
2018-03-15T20:19:14.516Z,60.08
2018-03-15T20:21:42.313Z,43.03
2018-03-15T20:24:15.859Z,50.03
2018-03-15T20:26:43.775Z,43.53
2018-03-15T20:29:11.542Z,52.03
2018-03-15T20:31:41.930Z,52.35
2018-03-15T20:34:12.235Z,44.22
2018-03-15T20:36:39.993Z,47.90
2018-03-15T20:39:13.467Z,48.45
2018-03-15T20:41:41.220Z,44.72
2018-03-15T20:44:08.985Z,40.85
2018-03-15T20:46:42.386Z,46.40
2018-03-15T20:49:13.077Z,51.63
2018-03-15T20:51:41.620Z,52.33
2018-03-15T20:54:09.419Z,45.05
2018-03-15T20:56:37.935Z,38.97
2018-03-15T20:59:05.750Z,43.65
2018-03-15T21:01:34.351Z,47.28
2018-03-15T21:04:02.111Z,47.97
2018-03-15T21:06:29.923Z,43.92
2018-03-15T21:08:58.847Z,49.15
2018-03-15T21:11:35.382Z,47.55
2018-03-15T21:14:03.155Z,39.75
2018-03-15T21:16:30.980Z,43.38
2018-03-15T21:18:58.803Z,30.95
2018-03-15T21:21:27.318Z,42.70
2018-03-15T21:23:55.132Z,36.70
2018-03-15T21:26:22.885Z,43.55
2018-03-15T21:28:50.637Z,55.67
2018-03-15T21:31:18.442Z,42.38
2018-03-15T21:33:46.958Z,46.45
2018-03-15T21:36:14.721Z,38.42
2018-03-15T21:38:42.535Z,45.85
2018-03-15T21:41:11.047Z,40.78
2018-03-15T21:43:38.789Z,37.97
2018-03-15T21:46:06.581Z,46.63
2018-03-15T21:48:34.370Z,45.90
2018-03-15T21:51:02.118Z,44.58
2018-03-15T21:53:29.918Z,41.70
2018-03-15T21:55:58.439Z,42.92
2018-03-15T21:58:26.183Z,41.37
2018-03-15T22:00:53.977Z,44.35
2018-03-15T22:03:21.730Z,44.50
2018-03-15T22:05:49.502Z,43.10
2018-03-15T22:08:18.108Z,41.80
2018-03-15T22:10:45.860Z,42.35
2018-03-15T22:13:13.617Z,36.17
2018-03-15T22:15:46.622Z,42.30
2018-03-15T22:18:15.363Z,41.83
2018-03-15T22:20:43.171Z,47.20
2018-03-15T22:23:10.915Z,42.30
2018-03-15T22:25:38.662Z,39.72
2018-03-15T22:28:06.463Z,47.72
2018-03-15T22:30:34.214Z,46.85
2018-03-15T22:33:01.990Z,37.38
2018-03-15T22:35:30.569Z,36.60
2018-03-15T22:37:59.095Z,38.28
2018-03-15T22:40:26.846Z,42.88
2018-03-15T22:42:54.650Z,43.85
2018-03-15T22:45:22.398Z,45.45
2018-03-15T22:47:50.154Z,42.47
2018-03-15T22:50:17.983Z,39.30
2018-03-15T22:52:45.753Z,37.53
2018-03-15T22:55:13.524Z,45.22
2018-03-15T22:57:41.332Z,46.40
2018-03-15T23:00:09.102Z,40.85
2018-03-15T23:02:36.850Z,38.35
2018-03-15T23:05:04.664Z,48.00
2018-03-15T23:07:32.410Z,43.55
2018-03-15T23:10:01.037Z,42.25
2018-03-15T23:12:28.839Z,44.75
2018-03-15T23:14:57.363Z,51.50
2018-03-15T23:17:25.115Z,42.47
2018-03-15T23:19:52.924Z,47.17
2018-03-15T23:22:20.715Z,42.03
2018-03-15T23:24:48.806Z,38.50
2018-03-15T23:27:16.725Z,42.55
2018-03-15T23:29:44.490Z,48.22
2018-03-15T23:32:12.243Z,49.97
2018-03-15T23:34:40.050Z,49.15
2018-03-15T23:37:07.804Z,57.72
2018-03-15T23:39:36.322Z,50.22
2018-03-15T23:42:04.158Z,44.05
2018-03-15T23:44:31.966Z,48.22
2018-03-15T23:46:59.732Z,53.35
2018-03-15T23:49:27.562Z,54.78
2018-03-15T23:51:55.305Z,43.28
2018-03-15T23:54:23.051Z,53.03
2018-03-15T23:56:51.619Z,53.80
2018-03-15T23:59:19.371Z,52.20
